Aviation Digital Data Service (ADDS)

Output produced by METARs form (1320 UTC 31 July 2015)
found at http://www.aviationweather.gov/adds/metars/
 
KDEC 311120Z 3112/0112 27006KT P6SM SKC 
     FM311500 28008KT P6SM FEW050 
     FM312100 29012G18KT P6SM VCTS SCT040CB 
     FM010100 30005KT P6SM SKC